createdAt,value
2022-11-10T00:00:02.303Z,1021.49
2022-11-10T00:02:02.351Z,1021.46
2022-11-10T00:04:02.443Z,1021.46
2022-11-10T00:06:02.308Z,1021.50
2022-11-10T00:08:02.325Z,1021.52
2022-11-10T00:10:02.326Z,1021.55
2022-11-10T00:12:02.323Z,1021.57
2022-11-10T00:14:02.305Z,1021.57
2022-11-10T00:16:02.324Z,1021.58
2022-11-10T00:18:02.311Z,1021.59
2022-11-10T00:20:03.401Z,1021.65
2022-11-10T00:22:02.442Z,1021.65
2022-11-10T00:24:02.351Z,1021.65
2022-11-10T00:26:02.375Z,1021.65
2022-11-10T00:28:02.338Z,1021.68
2022-11-10T00:30:02.400Z,1021.68
2022-11-10T00:32:02.351Z,1021.68
2022-11-10T00:34:02.321Z,1021.73
2022-11-10T00:36:02.342Z,1021.60
2022-11-10T00:38:32.416Z,1021.69
2022-11-10T00:40:32.371Z,1021.78
2022-11-10T00:42:32.423Z,1021.78
2022-11-10T00:44:32.373Z,1021.82
2022-11-10T00:46:32.367Z,1021.85
2022-11-10T00:48:32.360Z,1021.91
2022-11-10T00:50:32.340Z,1021.91
2022-11-10T00:52:32.324Z,1021.91
2022-11-10T00:54:32.337Z,1021.98
2022-11-10T00:56:32.324Z,1021.95
2022-11-10T00:58:32.467Z,1021.97
2022-11-10T01:00:32.365Z,1021.97
2022-11-10T01:02:32.375Z,1022.03
2022-11-10T01:04:32.347Z,1022.03
2022-11-10T01:06:32.393Z,1022.09
2022-11-10T01:08:32.375Z,1022.11
2022-11-10T01:10:32.389Z,1022.11
2022-11-10T01:12:32.500Z,1022.11
2022-11-10T01:14:32.400Z,1022.14
2022-11-10T01:16:32.376Z,1022.14
2022-11-10T01:18:32.396Z,1022.12
2022-11-10T01:20:32.403Z,1022.12
2022-11-10T01:22:32.380Z,1022.10
2022-11-10T01:24:32.470Z,1022.14
2022-11-10T01:26:32.344Z,1022.17
2022-11-10T01:28:32.400Z,1022.17
2022-11-10T01:30:32.363Z,1022.21
2022-11-10T01:32:32.383Z,1022.25
2022-11-10T01:34:32.511Z,1022.31
2022-11-10T01:36:32.352Z,1022.37
2022-11-10T01:38:32.446Z,1022.37
2022-11-10T01:40:32.433Z,1022.33
2022-11-10T01:42:32.351Z,1022.35
2022-11-10T01:44:32.413Z,1022.41
2022-11-10T01:46:32.596Z,1022.40
2022-11-10T01:48:32.391Z,1022.40
2022-11-10T01:50:32.415Z,1022.43
2022-11-10T01:52:32.368Z,1022.43
2022-11-10T01:54:32.442Z,1022.50
2022-11-10T01:56:32.431Z,1022.55
2022-11-10T01:58:32.581Z,1022.55
2022-11-10T02:00:32.585Z,1022.61
2022-11-10T02:02:32.404Z,1022.63
2022-11-10T02:04:32.557Z,1022.64
2022-11-10T02:06:32.509Z,1022.64
2022-11-10T02:08:32.474Z,1022.67
2022-11-10T02:10:32.574Z,1022.65
2022-11-10T02:12:32.591Z,1022.68
2022-11-10T02:14:32.543Z,1022.66
2022-11-10T02:16:32.637Z,1022.66
2022-11-10T02:20:32.512Z,1022.75
2022-11-10T02:22:32.412Z,1022.78
2022-11-10T02:26:49.772Z,1022.82
2022-11-10T02:28:49.768Z,1022.82
2022-11-10T02:30:49.752Z,1022.86
2022-11-10T02:32:49.891Z,1022.86
2022-11-10T02:34:49.742Z,1022.86
2022-11-10T02:36:49.722Z,1022.86
2022-11-10T02:38:50.456Z,1022.88
2022-11-10T02:40:49.861Z,1022.84
2022-11-10T02:42:49.990Z,1022.84
2022-11-10T02:44:51.362Z,1022.84
2022-11-10T02:46:49.890Z,1022.85
2022-11-10T02:48:49.933Z,1022.89
2022-11-10T02:50:49.764Z,1022.99
2022-11-10T02:52:49.786Z,1023.00
2022-11-10T02:54:49.762Z,1023.00
2022-11-10T02:56:49.841Z,1023.04
2022-11-10T02:58:49.731Z,1023.04
2022-11-10T03:00:49.807Z,1023.16
2022-11-10T03:02:49.757Z,1023.16
2022-11-10T03:04:49.788Z,1023.25
2022-11-10T03:06:49.988Z,1023.28
2022-11-10T03:08:49.739Z,1023.41
2022-11-10T03:10:49.806Z,1023.42
2022-11-10T03:12:49.750Z,1023.42
2022-11-10T03:14:49.798Z,1023.42
2022-11-10T03:16:49.763Z,1023.51
2022-11-10T03:18:49.754Z,1023.57
2022-11-10T03:20:49.773Z,1023.62
2022-11-10T03:22:49.765Z,1023.62
2022-11-10T03:24:49.799Z,1023.63
2022-11-10T03:26:49.820Z,1023.63
2022-11-10T03:28:49.832Z,1023.64
2022-11-10T03:30:49.776Z,1023.64
2022-11-10T03:32:49.939Z,1023.68
2022-11-10T03:34:49.763Z,1023.68
2022-11-10T03:36:49.810Z,1023.71
2022-11-10T03:38:49.794Z,1023.75
2022-11-10T03:41:18.123Z,1023.75
2022-11-10T03:43:20.196Z,1023.86
2022-11-10T03:45:19.796Z,1023.86
2022-11-10T03:47:19.795Z,1023.91
2022-11-10T03:49:19.762Z,1023.91
2022-11-10T03:51:19.766Z,1023.94
2022-11-10T03:53:20.049Z,1023.94
2022-11-10T03:55:19.877Z,1023.94
2022-11-10T03:57:19.890Z,1024.03
2022-11-10T03:59:19.833Z,1023.99
2022-11-10T04:01:19.868Z,1024.07
2022-11-10T04:03:20.178Z,1024.07
2022-11-10T04:05:19.804Z,1024.14
2022-11-10T04:07:19.825Z,1024.17
2022-11-10T04:09:19.768Z,1024.19
2022-11-10T04:11:19.822Z,1024.18
2022-11-10T04:13:20.094Z,1024.18
2022-11-10T04:15:19.782Z,1024.21
2022-11-10T04:17:19.825Z,1024.21
2022-11-10T04:19:19.812Z,1024.19
2022-11-10T04:21:19.814Z,1024.24
2022-11-10T04:23:20.008Z,1024.24
2022-11-10T04:25:19.819Z,1024.25
2022-11-10T04:27:19.822Z,1024.25
2022-11-10T04:29:19.802Z,1024.30
2022-11-10T04:31:19.793Z,1024.30
2022-11-10T04:33:20.184Z,1024.35
2022-11-10T04:35:19.828Z,1024.35
2022-11-10T04:37:19.814Z,1024.37
2022-11-10T04:39:19.821Z,1024.41
2022-11-10T04:41:19.817Z,1024.41
2022-11-10T04:43:20.141Z,1024.45
2022-11-10T04:45:19.874Z,1024.53
2022-11-10T04:47:19.808Z,1024.60
2022-11-10T04:49:19.837Z,1024.62
2022-11-10T04:51:19.994Z,1024.62
2022-11-10T04:53:19.976Z,1024.70
2022-11-10T04:55:19.916Z,1024.75
2022-11-10T04:57:19.876Z,1024.80
2022-11-10T04:59:19.879Z,1024.83
2022-11-10T05:01:19.895Z,1024.83
2022-11-10T05:03:20.241Z,1024.92
2022-11-10T05:05:19.838Z,1024.99
2022-11-10T05:07:19.912Z,1025.01
2022-11-10T05:09:19.851Z,1025.01
2022-11-10T05:11:19.946Z,1024.89
2022-11-10T05:13:20.107Z,1024.87
2022-11-10T05:15:19.922Z,1024.87
2022-11-10T05:17:19.824Z,1024.84
2022-11-10T05:19:19.866Z,1024.84
2022-11-10T05:21:19.969Z,1024.86
2022-11-10T05:23:20.017Z,1024.92
2022-11-10T05:25:19.815Z,1025.03
2022-11-10T05:27:19.907Z,1025.13
2022-11-10T05:29:19.998Z,1025.13
2022-11-10T05:31:19.861Z,1025.24
2022-11-10T05:33:20.056Z,1025.35
2022-11-10T05:35:19.822Z,1025.40
2022-11-10T05:37:19.842Z,1025.40
2022-11-10T05:39:49.839Z,1025.49
2022-11-10T05:41:49.895Z,1025.54
2022-11-10T05:43:49.848Z,1025.54
2022-11-10T05:45:49.850Z,1025.51
2022-11-10T05:47:49.921Z,1025.51
2022-11-10T05:49:49.880Z,1025.51
2022-11-10T05:51:49.875Z,1025.50
2022-11-10T05:53:50.056Z,1025.49
2022-11-10T05:55:49.910Z,1025.49
2022-11-10T05:57:49.921Z,1025.49
2022-11-10T05:59:49.973Z,1025.59
2022-11-10T06:01:49.849Z,1025.64
2022-11-10T06:03:49.917Z,1025.69
2022-11-10T06:05:49.882Z,1025.69
2022-11-10T06:07:49.863Z,1025.66
2022-11-10T06:09:49.974Z,1025.69
2022-11-10T06:11:49.875Z,1025.73
2022-11-10T06:13:49.868Z,1025.71
2022-11-10T06:15:50.664Z,1025.71
2022-11-10T06:17:50.036Z,1025.73
2022-11-10T06:19:49.945Z,1025.78
2022-11-10T06:21:50.297Z,1025.85
2022-11-10T06:23:49.898Z,1025.87
2022-11-10T06:25:49.863Z,1025.87
2022-11-10T06:27:49.931Z,1025.89
2022-11-10T06:29:49.880Z,1025.93
2022-11-10T06:31:49.900Z,1026.06
2022-11-10T06:33:49.863Z,1026.06
2022-11-10T06:35:49.905Z,1026.23
2022-11-10T06:37:49.878Z,1026.23
2022-11-10T06:39:49.934Z,1026.30
2022-11-10T06:41:49.976Z,1026.39
2022-11-10T06:43:49.878Z,1026.39
2022-11-10T06:45:49.906Z,1026.53
2022-11-10T06:47:49.871Z,1026.60
2022-11-10T06:49:49.958Z,1026.56
2022-11-10T06:51:49.876Z,1026.58
2022-11-10T06:53:49.913Z,1026.58
2022-11-10T06:55:49.915Z,1026.68
2022-11-10T06:57:49.972Z,1026.82
2022-11-10T06:59:49.892Z,1026.92
2022-11-10T07:01:49.912Z,1026.96
2022-11-10T07:04:17.861Z,1026.96
2022-11-10T07:05:50.003Z,1027.01
2022-11-10T07:07:49.891Z,1027.05
2022-11-10T07:09:49.917Z,1027.12
2022-11-10T07:11:49.918Z,1027.12
2022-11-10T07:13:49.952Z,1027.15
2022-11-10T07:15:49.933Z,1027.15
2022-11-10T07:17:49.888Z,1027.15
2022-11-10T07:19:49.897Z,1027.19
2022-11-10T07:21:49.945Z,1027.19
2022-11-10T07:23:50.059Z,1027.19
2022-11-10T07:25:49.973Z,1027.30
2022-11-10T07:27:49.945Z,1027.40
2022-11-10T07:29:49.938Z,1027.38
2022-11-10T07:31:49.967Z,1027.38
2022-11-10T07:33:54.319Z,1027.42
2022-11-10T07:36:19.945Z,1027.41
2022-11-10T07:38:19.917Z,1027.44
2022-11-10T07:40:20.127Z,1027.45
2022-11-10T07:42:19.942Z,1027.49
2022-11-10T07:44:19.958Z,1027.49
2022-11-10T07:46:19.920Z,1027.57
2022-11-10T07:48:19.969Z,1027.64
2022-11-10T07:50:20.095Z,1027.69
2022-11-10T07:52:19.975Z,1027.75
2022-11-10T07:54:19.969Z,1027.75
2022-11-10T07:56:19.950Z,1027.78
2022-11-10T07:58:19.941Z,1027.78
2022-11-10T08:00:19.964Z,1027.80
2022-11-10T08:02:19.964Z,1027.87
2022-11-10T08:04:20.061Z,1027.87
2022-11-10T08:06:20.067Z,1027.89
2022-11-10T08:08:19.927Z,1027.88
2022-11-10T08:10:19.932Z,1027.83
2022-11-10T08:12:19.976Z,1027.83
2022-11-10T08:14:19.989Z,1027.88
2022-11-10T08:16:19.995Z,1027.98
2022-11-10T08:18:19.954Z,1028.08
2022-11-10T08:20:19.946Z,1028.09
2022-11-10T08:22:19.968Z,1028.09
2022-11-10T08:24:20.003Z,1028.10
2022-11-10T08:26:19.960Z,1028.08
2022-11-10T08:28:19.944Z,1028.11
2022-11-10T08:30:19.932Z,1028.16
2022-11-10T08:32:19.997Z,1028.16
2022-11-10T08:34:20.030Z,1028.24
2022-11-10T08:36:19.999Z,1028.21
2022-11-10T08:38:19.967Z,1028.21
2022-11-10T08:40:19.938Z,1028.21
2022-11-10T08:42:19.956Z,1028.26
2022-11-10T08:44:21.033Z,1028.30
2022-11-10T08:46:19.976Z,1028.41
2022-11-10T08:48:19.961Z,1028.40
2022-11-10T08:50:19.993Z,1028.40
2022-11-10T08:52:19.975Z,1028.45
2022-11-10T08:54:20.003Z,1028.48
2022-11-10T08:56:20.090Z,1028.56
2022-11-10T08:58:20.035Z,1028.55
2022-11-10T09:00:19.986Z,1028.55
2022-11-10T09:02:19.950Z,1028.55
2022-11-10T09:04:20.007Z,1028.54
2022-11-10T09:06:20.123Z,1028.52
2022-11-10T09:08:20.035Z,1028.52
2022-11-10T09:10:20.134Z,1028.48
2022-11-10T09:12:19.967Z,1028.47
2022-11-10T09:14:19.983Z,1028.50
2022-11-10T09:16:20.068Z,1028.52
2022-11-10T09:18:20.027Z,1028.52
2022-11-10T09:20:20.058Z,1028.52
2022-11-10T09:22:20.037Z,1028.65
2022-11-10T09:24:31.616Z,1028.71
2022-11-10T09:26:30.919Z,1028.76
2022-11-10T09:28:30.954Z,1028.76
2022-11-10T09:30:30.953Z,1028.86
2022-11-10T09:32:30.933Z,1028.93
2022-11-10T09:34:30.927Z,1028.95
2022-11-10T09:36:30.941Z,1028.95
2022-11-10T09:38:30.961Z,1028.98
2022-11-10T09:40:30.933Z,1029.05
2022-11-10T09:42:30.926Z,1029.21
2022-11-10T09:44:30.942Z,1029.26
2022-11-10T09:46:30.989Z,1029.26
2022-11-10T09:48:31.000Z,1029.27
2022-11-10T09:50:30.935Z,1029.28
2022-11-10T09:52:30.944Z,1029.31
2022-11-10T09:54:31.117Z,1029.35
2022-11-10T09:56:31.054Z,1029.35
2022-11-10T09:58:30.946Z,1029.40
2022-11-10T10:00:30.974Z,1029.40
2022-11-10T10:02:30.948Z,1029.47
2022-11-10T10:04:30.972Z,1029.47
2022-11-10T10:06:49.976Z,1029.46
2022-11-10T10:08:31.074Z,1029.52
2022-11-10T10:10:30.977Z,1029.59
2022-11-10T10:12:30.976Z,1029.57
2022-11-10T10:17:00.982Z,1029.67
2022-11-10T10:19:00.960Z,1029.67
2022-11-10T10:21:00.999Z,1029.76
2022-11-10T10:23:00.974Z,1029.74
2022-11-10T10:25:00.993Z,1029.76
2022-11-10T10:27:00.963Z,1029.76
2022-11-10T10:29:00.999Z,1029.76
2022-11-10T10:31:00.978Z,1029.84
2022-11-10T10:33:00.990Z,1029.86
2022-11-10T10:35:00.982Z,1029.81
2022-11-10T10:37:01.095Z,1029.81
2022-11-10T10:39:00.977Z,1029.77
2022-11-10T10:41:00.990Z,1029.77
2022-11-10T10:43:01.064Z,1029.81
2022-11-10T10:45:01.040Z,1029.82
2022-11-10T10:47:01.057Z,1029.82
2022-11-10T10:49:26.711Z,1029.77
2022-11-10T10:51:00.978Z,1029.77
2022-11-10T10:53:01.026Z,1029.72
2022-11-10T10:55:00.991Z,1029.73
2022-11-10T10:57:01.002Z,1029.73
2022-11-10T10:59:01.019Z,1029.73
2022-11-10T11:01:01.100Z,1029.71
2022-11-10T11:03:04.455Z,1029.70
2022-11-10T11:05:01.069Z,1029.70
2022-11-10T11:07:01.056Z,1029.71
2022-11-10T11:09:01.041Z,1029.73
2022-11-10T11:11:01.035Z,1029.76
2022-11-10T11:13:01.065Z,1029.74
2022-11-10T11:15:01.046Z,1029.74
2022-11-10T11:17:01.090Z,1029.68
2022-11-10T11:19:01.049Z,1029.66
2022-11-10T11:21:01.035Z,1029.66
2022-11-10T11:23:01.049Z,1029.64
2022-11-10T11:25:01.003Z,1029.64
2022-11-10T11:27:01.051Z,1029.72
2022-11-10T11:29:01.032Z,1029.74
2022-11-10T11:31:01.020Z,1029.71
2022-11-10T11:33:01.046Z,1029.70
2022-11-10T11:35:01.112Z,1029.70
2022-11-10T11:37:05.369Z,1029.73
2022-11-10T11:39:01.062Z,1029.71
2022-11-10T11:41:01.011Z,1029.74
2022-11-10T11:43:01.033Z,1029.74
2022-11-10T11:45:01.052Z,1029.71
2022-11-10T11:47:01.047Z,1029.68
2022-11-10T11:49:01.032Z,1029.63
2022-11-10T11:51:01.128Z,1029.63
2022-11-10T11:53:01.113Z,1029.63
2022-11-10T11:55:01.066Z,1029.62
2022-11-10T11:57:01.031Z,1029.63
2022-11-10T11:59:01.174Z,1029.65
2022-11-10T12:01:01.074Z,1029.65
2022-11-10T12:03:01.127Z,1029.65
2022-11-10T12:05:01.044Z,1029.62
2022-11-10T12:07:01.181Z,1029.53
2022-11-10T12:09:01.154Z,1029.56
2022-11-10T12:11:01.049Z,1029.56
2022-11-10T12:13:01.104Z,1029.58
2022-11-10T12:15:01.088Z,1029.55
2022-11-10T12:17:01.041Z,1029.57
2022-11-10T12:19:31.088Z,1029.59
2022-11-10T12:21:31.097Z,1029.59
2022-11-10T12:23:31.083Z,1029.59
2022-11-10T12:25:31.157Z,1029.60
2022-11-10T12:27:31.090Z,1029.56
2022-11-10T12:29:31.222Z,1029.52
2022-11-10T12:31:31.100Z,1029.52
2022-11-10T12:33:31.117Z,1029.45
2022-11-10T12:35:31.195Z,1029.41
2022-11-10T12:37:31.127Z,1029.45
2022-11-10T12:39:31.112Z,1029.45
2022-11-10T12:41:31.120Z,1029.48
2022-11-10T12:43:31.177Z,1029.48
2022-11-10T12:45:31.120Z,1029.45
2022-11-10T12:47:31.101Z,1029.44
2022-11-10T12:49:31.079Z,1029.44
2022-11-10T12:51:31.113Z,1029.44
2022-11-10T12:53:31.089Z,1029.40
2022-11-10T12:55:31.172Z,1029.41
2022-11-10T12:57:31.108Z,1029.41
2022-11-10T12:59:31.089Z,1029.41
2022-11-10T13:01:31.180Z,1029.47
2022-11-10T13:03:31.134Z,1029.49
2022-11-10T13:05:31.102Z,1029.47
2022-11-10T13:07:31.084Z,1029.47
2022-11-10T13:09:31.174Z,1029.55
2022-11-10T13:11:31.137Z,1029.59
2022-11-10T13:13:31.091Z,1029.61
2022-11-10T13:15:31.147Z,1029.58
2022-11-10T13:17:31.096Z,1029.58
2022-11-10T13:19:31.121Z,1029.60
2022-11-10T13:21:31.134Z,1029.61
2022-11-10T13:23:31.159Z,1029.61
2022-11-10T13:25:31.145Z,1029.64
2022-11-10T13:27:31.218Z,1029.64
2022-11-10T13:29:31.181Z,1029.62
2022-11-10T13:31:31.189Z,1029.60
2022-11-10T13:33:31.095Z,1029.70
2022-11-10T13:35:31.125Z,1029.75
2022-11-10T13:37:31.174Z,1029.75
2022-11-10T13:39:31.223Z,1029.77
2022-11-10T13:41:31.189Z,1029.77
2022-11-10T13:43:31.198Z,1029.80
2022-11-10T13:45:31.129Z,1029.80
2022-11-10T13:47:31.166Z,1029.84
2022-11-10T13:49:31.163Z,1029.80
2022-11-10T13:51:31.127Z,1029.77
2022-11-10T13:53:31.178Z,1029.77
2022-11-10T13:55:31.173Z,1029.77
2022-11-10T13:57:31.251Z,1029.77
2022-11-10T13:59:31.134Z,1029.77
2022-11-10T14:01:31.193Z,1029.83
2022-11-10T14:03:31.313Z,1029.83
2022-11-10T14:05:31.171Z,1029.83
2022-11-10T14:07:33.767Z,1029.80
2022-11-10T14:09:31.133Z,1029.80
2022-11-10T14:11:31.141Z,1029.80
2022-11-10T14:13:31.160Z,1029.80
2022-11-10T14:15:31.123Z,1029.86
2022-11-10T14:17:31.175Z,1029.89
2022-11-10T14:19:31.192Z,1029.91
2022-11-10T14:22:01.153Z,1029.95
2022-11-10T14:24:01.243Z,1029.97
2022-11-10T14:26:01.189Z,1029.94
2022-11-10T14:28:01.215Z,1029.94
2022-11-10T14:30:01.160Z,1029.89
2022-11-10T14:32:01.227Z,1029.91
2022-11-10T14:34:01.160Z,1029.93
2022-11-10T14:36:01.271Z,1029.94
2022-11-10T14:38:01.213Z,1029.94
2022-11-10T14:40:01.188Z,1029.99
2022-11-10T14:42:01.216Z,1030.04
2022-11-10T14:44:01.185Z,1030.04
2022-11-10T14:46:01.179Z,1030.04
2022-11-10T14:48:01.277Z,1030.10
2022-11-10T14:50:01.297Z,1030.07
2022-11-10T14:52:01.223Z,1030.12
2022-11-10T14:54:01.229Z,1030.16
2022-11-10T14:56:01.254Z,1030.16
2022-11-10T14:58:01.232Z,1030.19
2022-11-10T15:00:01.259Z,1030.24
2022-11-10T15:02:01.247Z,1030.31
2022-11-10T15:04:01.199Z,1030.35
2022-11-10T15:06:01.348Z,1030.35
2022-11-10T15:08:01.190Z,1030.36
2022-11-10T15:10:01.180Z,1030.43
2022-11-10T15:12:01.431Z,1030.47
2022-11-10T15:14:01.172Z,1030.47
2022-11-10T15:16:01.228Z,1030.51
2022-11-10T15:18:01.296Z,1030.49
2022-11-10T15:20:01.364Z,1030.47
2022-11-10T15:22:01.224Z,1030.47
2022-11-10T15:24:01.264Z,1030.47
2022-11-10T15:26:01.229Z,1030.47
2022-11-10T15:28:01.279Z,1030.54
2022-11-10T15:30:01.768Z,1030.58
2022-11-10T15:32:01.303Z,1030.61
2022-11-10T15:34:01.212Z,1030.61
2022-11-10T15:36:01.366Z,1030.60
2022-11-10T15:38:01.257Z,1030.63
2022-11-10T15:40:01.242Z,1030.55
2022-11-10T15:42:01.296Z,1030.55
2022-11-10T15:44:01.267Z,1030.62
2022-11-10T15:46:01.318Z,1030.62
2022-11-10T15:48:01.440Z,1030.65
2022-11-10T15:50:01.211Z,1030.67
2022-11-10T15:52:01.209Z,1030.67
2022-11-10T15:54:01.369Z,1030.66
2022-11-10T15:56:01.183Z,1030.72
2022-11-10T15:58:01.317Z,1030.79
2022-11-10T16:00:01.286Z,1030.80
2022-11-10T16:02:01.445Z,1030.80
2022-11-10T16:04:01.236Z,1030.84
2022-11-10T16:06:01.247Z,1030.84
2022-11-10T16:08:01.197Z,1030.88
2022-11-10T16:10:01.383Z,1030.88
2022-11-10T16:12:01.263Z,1030.91
2022-11-10T16:14:01.306Z,1030.97
2022-11-10T16:16:01.304Z,1031.01
2022-11-10T16:18:01.215Z,1031.01
2022-11-10T16:20:01.298Z,1031.01
2022-11-10T16:22:31.299Z,1031.03
2022-11-10T16:26:31.349Z,1031.08
2022-11-10T16:28:31.334Z,1031.10
2022-11-10T16:30:31.216Z,1031.10
2022-11-10T16:32:31.257Z,1031.17
2022-11-10T16:34:31.257Z,1031.21
2022-11-10T16:36:31.339Z,1031.24
2022-11-10T16:38:31.272Z,1031.26
2022-11-10T16:42:31.284Z,1031.22
2022-11-10T16:46:31.249Z,1031.24
2022-11-10T16:48:31.324Z,1031.24
2022-11-10T16:52:25.716Z,1031.27
2022-11-10T16:54:25.709Z,1031.29
2022-11-10T16:56:25.678Z,1031.28
2022-11-10T16:58:25.806Z,1031.28
2022-11-10T17:00:25.673Z,1031.28
2022-11-10T17:02:25.686Z,1031.41
2022-11-10T17:04:25.706Z,1031.48
2022-11-10T17:06:25.708Z,1031.48
2022-11-10T17:08:25.827Z,1031.48
2022-11-10T17:10:25.741Z,1031.63
2022-11-10T17:12:25.658Z,1031.69
2022-11-10T17:14:25.679Z,1031.72
2022-11-10T17:16:25.711Z,1031.72
2022-11-10T17:18:25.794Z,1031.76
2022-11-10T17:20:25.731Z,1031.76
2022-11-10T17:22:25.738Z,1031.76
2022-11-10T17:24:25.707Z,1031.75
2022-11-10T17:26:25.688Z,1031.75
2022-11-10T17:28:25.818Z,1031.75
2022-11-10T17:30:25.724Z,1031.73
2022-11-10T17:32:50.080Z,1031.72
2022-11-10T17:34:25.764Z,1031.74
2022-11-10T17:36:25.777Z,1031.74
2022-11-10T17:38:25.674Z,1031.71
2022-11-10T17:40:25.679Z,1031.73
2022-11-10T17:42:25.683Z,1031.67
2022-11-10T17:44:25.847Z,1031.67
2022-11-10T17:46:25.724Z,1031.70
2022-11-10T17:48:25.721Z,1031.69
2022-11-10T17:50:25.691Z,1031.71
2022-11-10T17:52:25.782Z,1031.69
2022-11-10T17:54:25.720Z,1031.69
2022-11-10T17:56:55.799Z,1031.68
2022-11-10T17:58:55.744Z,1031.71
2022-11-10T18:00:55.839Z,1031.71
2022-11-10T18:02:55.714Z,1031.72
2022-11-10T18:04:55.724Z,1031.72
2022-11-10T18:06:55.716Z,1031.80
2022-11-10T18:08:55.785Z,1031.80
2022-11-10T18:10:55.686Z,1031.96
2022-11-10T18:12:55.767Z,1031.96
2022-11-10T18:14:55.724Z,1031.94
2022-11-10T18:16:55.717Z,1031.93
2022-11-10T18:18:55.753Z,1031.88
2022-11-10T18:20:55.696Z,1031.89
2022-11-10T18:22:55.720Z,1031.89
2022-11-10T18:24:55.957Z,1031.87
2022-11-10T18:26:55.851Z,1031.86
2022-11-10T18:28:55.945Z,1031.77
2022-11-10T18:30:55.759Z,1031.74
2022-11-10T18:32:55.750Z,1031.74
2022-11-10T18:34:55.808Z,1031.78
2022-11-10T18:36:55.774Z,1031.82
2022-11-10T18:38:55.801Z,1031.87
2022-11-10T18:40:55.837Z,1031.86
2022-11-10T18:42:55.982Z,1031.86
2022-11-10T18:44:55.846Z,1031.87
2022-11-10T18:46:55.772Z,1031.85
2022-11-10T18:48:55.787Z,1031.85
2022-11-10T18:50:55.762Z,1031.85
2022-11-10T18:52:55.825Z,1031.87
2022-11-10T18:54:55.829Z,1031.93
2022-11-10T18:56:55.876Z,1031.90
2022-11-10T18:58:57.113Z,1031.87
2022-11-10T19:00:55.880Z,1031.87
2022-11-10T19:02:55.856Z,1031.98
2022-11-10T19:04:55.817Z,1032.03
2022-11-10T19:06:55.979Z,1032.07
2022-11-10T19:08:55.844Z,1032.10
2022-11-10T19:10:55.856Z,1032.10
2022-11-10T19:12:55.963Z,1032.11
2022-11-10T19:14:55.888Z,1032.04
2022-11-10T19:16:55.804Z,1032.01
2022-11-10T19:18:56.812Z,1032.01
2022-11-10T19:20:55.912Z,1032.07
2022-11-10T19:22:55.840Z,1032.06
2022-11-10T19:25:07.982Z,1031.96
2022-11-10T19:26:55.942Z,1032.00
2022-11-10T19:28:55.935Z,1032.00
2022-11-10T19:30:55.942Z,1032.00
2022-11-10T19:32:55.890Z,1032.00
2022-11-10T19:34:55.794Z,1032.01
2022-11-10T19:36:55.883Z,1032.06
2022-11-10T19:38:55.827Z,1032.06
2022-11-10T19:40:55.840Z,1032.07
2022-11-10T19:42:55.917Z,1032.09
2022-11-10T19:44:55.887Z,1032.14
2022-11-10T19:46:55.843Z,1032.14
2022-11-10T19:48:55.797Z,1032.21
2022-11-10T19:50:55.780Z,1032.26
2022-11-10T19:53:26.010Z,1032.34
2022-11-10T19:55:25.852Z,1032.37
2022-11-10T19:57:25.878Z,1032.27
2022-11-10T19:59:25.914Z,1032.23
2022-11-10T20:01:25.953Z,1032.23
2022-11-10T20:03:25.986Z,1032.21
2022-11-10T20:05:25.852Z,1032.23
2022-11-10T20:07:25.882Z,1032.28
2022-11-10T20:11:25.889Z,1032.28
2022-11-10T20:13:25.983Z,1032.33
2022-11-10T20:15:25.778Z,1032.39
2022-11-10T20:17:25.813Z,1032.45
2022-11-10T20:19:25.803Z,1032.45
2022-11-10T20:21:25.762Z,1032.56
2022-11-10T20:23:26.009Z,1032.59
2022-11-10T20:25:25.784Z,1032.61
2022-11-10T20:27:25.919Z,1032.64
2022-11-10T20:29:25.933Z,1032.64
2022-11-10T20:31:25.903Z,1032.60
2022-11-10T20:33:25.934Z,1032.64
2022-11-10T20:35:25.854Z,1032.70
2022-11-10T20:37:25.847Z,1032.72
2022-11-10T20:39:25.953Z,1032.72
2022-11-10T20:41:25.949Z,1032.70
2022-11-10T20:43:25.999Z,1032.71
2022-11-10T20:45:25.816Z,1032.78
2022-11-10T20:47:25.995Z,1032.78
2022-11-10T20:49:25.855Z,1032.87
2022-11-10T20:51:25.785Z,1032.87
2022-11-10T20:53:26.109Z,1032.88
2022-11-10T20:55:51.613Z,1032.80
2022-11-10T20:57:25.928Z,1032.80
2022-11-10T20:59:25.948Z,1032.73
2022-11-10T21:01:26.049Z,1032.73
2022-11-10T21:03:26.279Z,1032.74
2022-11-10T21:05:25.960Z,1032.69
2022-11-10T21:07:25.909Z,1032.69
2022-11-10T21:09:25.947Z,1032.63
2022-11-10T21:11:31.360Z,1032.67
2022-11-10T21:13:26.095Z,1032.77
2022-11-10T21:15:25.833Z,1032.77
2022-11-10T21:17:25.845Z,1032.72
2022-11-10T21:19:25.892Z,1032.72
2022-11-10T21:21:25.860Z,1032.70
2022-11-10T21:23:26.148Z,1032.69
2022-11-10T21:25:25.903Z,1032.69
2022-11-10T21:27:25.964Z,1032.63
2022-11-10T21:29:26.036Z,1032.59
2022-11-10T21:31:25.993Z,1032.59
2022-11-10T21:33:25.966Z,1032.56
2022-11-10T21:35:25.910Z,1032.56
2022-11-10T21:37:25.905Z,1032.55
2022-11-10T21:39:25.956Z,1032.53
2022-11-10T21:41:26.103Z,1032.45
2022-11-10T21:43:25.985Z,1032.45
2022-11-10T21:45:25.884Z,1032.45
2022-11-10T21:47:55.869Z,1032.45
2022-11-10T21:49:55.905Z,1032.45
2022-11-10T21:51:55.807Z,1032.47
2022-11-10T21:53:55.872Z,1032.47
2022-11-10T21:55:55.918Z,1032.57
2022-11-10T21:57:55.939Z,1032.59
2022-11-10T21:59:55.868Z,1032.59
2022-11-10T22:01:55.924Z,1032.60
2022-11-10T22:03:55.871Z,1032.60
2022-11-10T22:05:55.837Z,1032.61
2022-11-10T22:07:55.875Z,1032.58
2022-11-10T22:09:55.943Z,1032.57
2022-11-10T22:11:55.877Z,1032.57
2022-11-10T22:13:55.989Z,1032.57
2022-11-10T22:15:55.846Z,1032.58
2022-11-10T22:17:55.875Z,1032.56
2022-11-10T22:19:55.864Z,1032.53
2022-11-10T22:21:59.560Z,1032.53
2022-11-10T22:23:55.895Z,1032.45
2022-11-10T22:25:55.840Z,1032.37
2022-11-10T22:27:55.823Z,1032.40
2022-11-10T22:29:55.849Z,1032.41
2022-11-10T22:31:55.884Z,1032.41
2022-11-10T22:33:55.872Z,1032.42
2022-11-10T22:35:55.878Z,1032.43
2022-11-10T22:37:55.890Z,1032.41
2022-11-10T22:39:55.841Z,1032.44
2022-11-10T22:41:56.039Z,1032.44
2022-11-10T22:43:55.923Z,1032.47
2022-11-10T22:45:55.966Z,1032.47
2022-11-10T22:47:55.894Z,1032.46
2022-11-10T22:49:55.909Z,1032.46
2022-11-10T22:51:55.851Z,1032.47
2022-11-10T22:53:55.938Z,1032.47
2022-11-10T22:55:55.937Z,1032.50
2022-11-10T22:57:55.949Z,1032.46
2022-11-10T22:59:55.916Z,1032.46
2022-11-10T23:01:55.922Z,1032.43
2022-11-10T23:03:55.860Z,1032.49
2022-11-10T23:05:56.669Z,1032.56
2022-11-10T23:07:55.902Z,1032.65
2022-11-10T23:09:55.869Z,1032.65
2022-11-10T23:11:55.996Z,1032.61
2022-11-10T23:13:55.861Z,1032.61
2022-11-10T23:15:55.975Z,1032.58
2022-11-10T23:17:55.872Z,1032.58
2022-11-10T23:19:55.854Z,1032.58
2022-11-10T23:21:55.882Z,1032.56
2022-11-10T23:23:55.879Z,1032.60
2022-11-10T23:25:55.872Z,1032.57
2022-11-10T23:27:55.897Z,1032.57
2022-11-10T23:29:55.982Z,1032.57
2022-11-10T23:31:55.914Z,1032.55
2022-11-10T23:33:55.902Z,1032.55
2022-11-10T23:35:55.940Z,1032.60
2022-11-10T23:38:04.554Z,1032.65
2022-11-10T23:40:04.662Z,1032.65
2022-11-10T23:42:04.574Z,1032.65
2022-11-10T23:44:04.539Z,1032.62
2022-11-10T23:46:07.281Z,1032.61
2022-11-10T23:48:06.985Z,1032.58
2022-11-10T23:50:04.557Z,1032.58
2022-11-10T23:52:04.597Z,1032.49
2022-11-10T23:54:04.580Z,1032.46
2022-11-10T23:56:04.570Z,1032.41
2022-11-10T23:58:04.597Z,1032.42
